Time;durP1;ratioP1;P1;durP2;ratioP2;P2;SDS_P1;SDS_P2;PMS_P1;PMS_P2;Temp;Humidity;BMP_temperature;BMP_pressure;BME280_temperature;BME280_humidity;BME280_pressure;Samples;Min_cycle;Max_cycle;Signal;HPM_P1;HPM_P2
2021/12/14 00:00:08;;;;;;;3.80;2.10;;;9.40;99.90;;;;;;5017818;28;20404;-86
2021/12/14 00:02:34;;;;;;;4.43;2.53;;;9.50;99.90;;;;;;5016247;28;20474;-86
2021/12/14 00:05:00;;;;;;;3.40;1.80;;;9.50;99.90;;;;;;5018075;28;20435;-85
2021/12/14 00:07:27;;;;;;;3.43;1.83;;;9.50;99.90;;;;;;5016144;28;20600;-86
2021/12/14 00:10:02;;;;;;;3.30;2.13;;;9.60;99.90;;;;;;5017170;28;21088;-85
2021/12/14 00:15:23;;;;;;;3.87;2.30;;;9.70;99.90;;;;;;5012192;28;20551;-86
2021/12/14 00:18:00;;;;;;;4.67;2.67;;;9.70;99.90;;;;;;5015184;28;20411;-83
2021/12/14 00:20:31;;;;;;;4.73;2.30;;;9.60;99.90;;;;;;5011985;28;20415;-83
2021/12/14 00:25:28;;;;;;;4.30;2.57;;;9.70;99.90;;;;;;5013307;28;20440;-85
2021/12/14 00:27:56;;;;;;;3.43;2.43;;;9.70;99.90;;;;;;5012297;28;20416;-85
2021/12/14 00:30:22;;;;;;;4.70;2.43;;;9.70;99.90;;;;;;5011884;28;21019;-83
2021/12/14 00:32:48;;;;;;;3.83;2.43;;;9.70;99.90;;;;;;5012241;28;20939;-83
2021/12/14 00:35:15;;;;;;;4.73;2.37;;;9.60;99.90;;;;;;5011813;28;20463;-83
2021/12/14 00:37:46;;;;;;;4.10;2.37;;;9.60;99.90;;;;;;5012527;28;20203;-84
2021/12/14 00:40:29;;;;;;;3.93;2.13;;;9.60;99.90;;;;;;5012462;28;20424;-83
2021/12/14 00:42:56;;;;;;;5.07;2.60;;;9.70;99.90;;;;;;5012340;28;20412;-83
2021/12/14 00:45:23;;;;;;;5.30;3.00;;;9.70;99.90;;;;;;5012484;28;20447;-85
2021/12/14 00:47:50;;;;;;;3.80;2.50;;;9.70;99.90;;;;;;5012205;28;20507;-83
2021/12/14 00:50:18;;;;;;;3.50;2.40;;;9.70;99.90;;;;;;5011643;28;20800;-83
2021/12/14 00:52:45;;;;;;;4.80;3.10;;;9.80;99.90;;;;;;5012634;28;20424;-83
2021/12/14 00:55:14;;;;;;;3.63;2.23;;;9.70;99.90;;;;;;5011010;28;20479;-83
2021/12/14 00:57:39;;;;;;;4.80;2.37;;;9.70;99.90;;;;;;5012696;28;20832;-83
2021/12/14 01:00:13;;;;;;;4.90;3.33;;;9.70;99.90;;;;;;5011169;28;20451;-85
2021/12/14 01:02:40;;;;;;;6.00;3.33;;;9.80;99.90;;;;;;5011316;28;20177;-83
2021/12/14 01:05:12;;;;;;;5.40;2.63;;;9.60;99.90;;;;;;5012524;28;20511;-83
2021/12/14 01:07:38;;;;;;;5.17;2.80;;;9.70;99.90;;;;;;5011424;28;21098;-84
2021/12/14 01:10:18;;;;;;;6.47;3.00;;;9.70;99.90;;;;;;5012433;28;20416;-83
2021/12/14 01:12:50;;;;;;;5.87;3.50;;;9.70;99.90;;;;;;5012500;28;20169;-83
2021/12/14 01:15:31;;;;;;;5.50;2.90;;;9.80;99.90;;;;;;5011537;28;20467;-83
2021/12/14 01:19:01;;;;;;;7.83;3.00;;;9.80;99.90;;;;;;5011354;28;21110;-83
2021/12/14 01:21:11;;;;;;;5.17;2.63;;;9.80;99.90;;;;;;5004121;28;20427;-84
2021/12/14 01:23:37;;;;;;;5.03;2.60;;;9.80;99.90;;;;;;5011169;28;20416;-82
2021/12/14 01:26:09;;;;;;;8.00;3.40;;;9.80;99.90;;;;;;5011059;28;20452;-83
2021/12/14 01:28:37;;;;;;;6.23;3.33;;;9.80;99.90;;;;;;5011125;28;20889;-82
2021/12/14 01:31:14;;;;;;;4.80;3.10;;;9.70;99.90;;;;;;5012148;28;20424;-83
2021/12/14 01:33:43;;;;;;;4.70;3.00;;;9.70;99.90;;;;;;5011082;28;20420;-85
2021/12/14 01:36:23;;;;;;;5.27;2.73;;;9.60;99.90;;;;;;5011572;28;20499;-83
2021/12/14 01:39:10;;;;;;;5.00;3.23;;;9.60;99.90;;;;;;5016406;28;20435;-83
2021/12/14 01:41:37;;;;;;;4.27;2.50;;;9.70;99.90;;;;;;5016357;28;20483;-83
2021/12/14 01:44:03;;;;;;;4.20;2.80;;;9.60;99.90;;;;;;5015153;28;20427;-84
2021/12/14 01:46:33;;;;;;;4.50;3.23;;;9.70;99.90;;;;;;5015097;28;20947;-84
2021/12/14 01:49:05;;;;;;;6.63;3.27;;;9.70;99.90;;;;;;5014647;28;20424;-83
2021/12/14 01:51:32;;;;;;;5.23;2.73;;;9.80;99.90;;;;;;5015991;28;20400;-84
2021/12/14 01:53:58;;;;;;;3.80;2.53;;;9.80;99.90;;;;;;5016060;28;20415;-83
2021/12/14 01:56:29;;;;;;;4.97;3.23;;;9.80;99.90;;;;;;5014553;28;20538;-84
2021/12/14 01:58:59;;;;;;;5.57;3.40;;;9.70;99.90;;;;;;5017093;28;20415;-84
2021/12/14 02:01:36;;;;;;;3.97;2.73;;;9.60;99.90;;;;;;5018383;28;20420;-84
2021/12/14 02:04:17;;;;;;;4.40;3.10;;;9.60;99.90;;;;;;5018078;28;20776;-84
2021/12/14 02:06:45;;;;;;;7.90;3.33;;;9.60;99.90;;;;;;5019615;28;20458;-85
2021/12/14 02:09:14;;;;;;;5.27;3.20;;;9.60;99.90;;;;;;5017567;28;20451;-83
2021/12/14 02:11:52;;;;;;;6.13;3.93;;;9.50;99.90;;;;;;5017734;28;20434;-84
2021/12/14 02:14:19;;;;;;;5.30;3.20;;;9.50;99.90;;;;;;5018911;28;20439;-85
2021/12/14 02:16:54;;;;;;;6.33;3.77;;;9.60;99.90;;;;;;5017306;28;20847;-84
2021/12/14 02:19:21;;;;;;;5.10;3.53;;;9.60;99.90;;;;;;5018173;28;20410;-84
2021/12/14 02:21:52;;;;;;;5.60;3.73;;;9.60;99.90;;;;;;5017104;28;20423;-84
2021/12/14 02:24:21;;;;;;;4.77;3.10;;;9.60;99.90;;;;;;5018538;28;20407;-84
2021/12/14 02:26:49;;;;;;;6.60;3.90;;;9.60;99.90;;;;;;5016922;28;20531;-84
2021/12/14 02:29:25;;;;;;;5.67;3.57;;;9.60;99.90;;;;;;5017102;28;20420;-84
2021/12/14 02:31:52;;;;;;;6.50;3.70;;;9.60;99.90;;;;;;5016687;28;20855;-85
2021/12/14 02:34:19;;;;;;;6.43;3.50;;;9.50;99.90;;;;;;5018182;28;20794;-83
2021/12/14 02:36:48;;;;;;;5.23;3.37;;;9.40;99.90;;;;;;5016297;28;20897;-85
2021/12/14 02:42:08;;;;;;;7.50;4.33;;;9.50;99.90;;;;;;5001766;28;20437;-85
2021/12/14 02:44:34;;;;;;;5.23;3.77;;;9.50;99.90;;;;;;5004839;28;20506;-85
2021/12/14 02:47:07;;;;;;;7.73;3.53;;;9.50;99.90;;;;;;5015603;28;20420;-85
2021/12/14 02:49:35;;;;;;;7.27;4.10;;;9.50;99.90;;;;;;5013672;28;20431;-83
2021/12/14 02:52:06;;;;;;;6.50;4.10;;;9.60;99.90;;;;;;5013705;28;20520;-84
2021/12/14 02:54:52;;;;;;;7.40;3.63;;;9.60;99.90;;;;;;5014682;28;20412;-84
2021/12/14 02:57:24;;;;;;;6.60;3.97;;;9.60;99.90;;;;;;5014911;28;20514;-83
2021/12/14 02:59:51;;;;;;;6.93;4.03;;;9.60;99.90;;;;;;5013788;28;20439;-84
2021/12/14 03:02:25;;;;;;;8.80;4.57;;;9.60;99.90;;;;;;5013388;28;20467;-85
2021/12/14 03:05:05;;;;;;;7.80;4.23;;;9.60;99.90;;;;;;5013487;28;20427;-84
2021/12/14 03:07:38;;;;;;;8.50;4.47;;;9.60;99.90;;;;;;5013388;28;20413;-84
2021/12/14 03:12:53;;;;;;;8.43;4.80;;;9.60;99.90;;;;;;5014801;28;20391;-83
2021/12/14 03:15:26;;;;;;;7.10;4.40;;;9.70;99.90;;;;;;5014377;28;20466;-83
2021/12/14 03:17:57;;;;;;;8.83;4.30;;;9.70;99.90;;;;;;5013283;28;20423;-84
2021/12/14 03:20:49;;;;;;;9.30;5.27;;;9.70;99.90;;;;;;5012961;28;20427;-84
2021/12/14 03:23:18;;;;;;;7.63;4.30;;;9.80;99.90;;;;;;5013090;28;20448;-83
2021/12/14 03:25:47;;;;;;;6.63;4.10;;;9.80;99.90;;;;;;5014204;28;20959;-83
2021/12/14 03:28:15;;;;;;;7.03;4.43;;;9.80;99.90;;;;;;5012853;28;20478;-83
2021/12/14 03:30:47;;;;;;;7.50;4.20;;;9.80;99.90;;;;;;5014288;28;20451;-83
2021/12/14 03:33:18;;;;;;;6.67;4.50;;;9.80;99.90;;;;;;5013909;28;20419;-83
2021/12/14 03:35:55;;;;;;;6.93;4.23;;;9.80;99.90;;;;;;5012827;28;20468;-84
2021/12/14 03:38:30;;;;;;;7.77;4.53;;;9.80;99.90;;;;;;5013905;28;20400;-83
2021/12/14 03:41:06;;;;;;;10.07;5.40;;;9.70;99.90;;;;;;5013993;28;20400;-83
2021/12/14 03:43:34;;;;;;;7.10;4.67;;;9.70;99.90;;;;;;5013857;28;20963;-84
2021/12/14 03:45:59;;;;;;;7.67;4.60;;;9.70;99.90;;;;;;5012540;28;20436;-84
2021/12/14 03:48:29;;;;;;;8.40;4.97;;;9.70;99.90;;;;;;5013153;28;20424;-84
2021/12/14 03:50:55;;;;;;;9.20;4.97;;;9.70;99.90;;;;;;5014285;28;20177;-84
2021/12/14 03:53:23;;;;;;;9.30;5.97;;;9.70;99.90;;;;;;5012425;28;20430;-82
2021/12/14 03:55:54;;;;;;;9.63;5.27;;;9.70;99.90;;;;;;5013412;28;20557;-83
2021/12/14 03:58:24;;;;;;;11.30;5.20;;;9.70;99.90;;;;;;5012313;28;20404;-84
2021/12/14 04:00:57;;;;;;;10.17;4.70;;;9.80;99.90;;;;;;5011804;28;20970;-84
2021/12/14 04:03:25;;;;;;;7.90;5.10;;;9.80;99.90;;;;;;5012329;28;20448;-84
2021/12/14 04:05:51;;;;;;;10.97;5.00;;;9.80;99.90;;;;;;5012039;28;20436;-84
2021/12/14 04:08:18;;;;;;;8.67;5.33;;;9.80;99.90;;;;;;5012161;28;20423;-84
2021/12/14 04:10:47;;;;;;;9.63;5.57;;;9.80;99.90;;;;;;5012006;28;20430;-84
2021/12/14 04:13:25;;;;;;;10.00;5.03;;;9.80;99.90;;;;;;5013814;28;20419;-84
2021/12/14 04:15:52;;;;;;;9.70;4.80;;;9.80;99.90;;;;;;5011894;28;20999;-83
2021/12/14 04:18:18;;;;;;;8.40;4.80;;;9.80;99.90;;;;;;5012046;28;20416;-84
2021/12/14 04:20:46;;;;;;;11.50;6.80;;;9.80;99.90;;;;;;5013402;28;20782;-84
2021/12/14 04:23:19;;;;;;;8.90;5.67;;;9.80;99.90;;;;;;5013238;28;20511;-84
2021/12/14 04:25:48;;;;;;;10.40;5.03;;;9.80;99.90;;;;;;5012944;28;20448;-84
2021/12/14 04:28:19;;;;;;;11.57;6.03;;;9.70;99.90;;;;;;5014718;28;20462;-84
2021/12/14 04:30:45;;;;;;;11.83;5.90;;;9.70;99.90;;;;;;5013041;28;20424;-84
2021/12/14 04:33:14;;;;;;;12.70;6.80;;;9.70;99.90;;;;;;5013304;28;20420;-83
2021/12/14 04:35:43;;;;;;;10.87;5.40;;;9.60;99.90;;;;;;5014379;28;20990;-84
2021/12/14 04:38:16;;;;;;;10.67;6.07;;;9.60;99.90;;;;;;5012437;28;20474;-82
2021/12/14 04:52:02;;;;;;;11.70;6.07;;;9.50;99.90;;;;;;5013973;28;20759;-84
2021/12/14 04:54:32;;;;;;;14.83;6.57;;;9.50;99.90;;;;;;5012717;28;20468;-83
2021/12/14 04:56:59;;;;;;;13.70;6.63;;;9.40;99.90;;;;;;5013488;28;20467;-84
2021/12/14 04:59:30;;;;;;;12.37;7.47;;;9.40;99.90;;;;;;5013313;28;20444;-84
2021/12/14 05:02:00;;;;;;;16.43;7.90;;;9.50;99.90;;;;;;5012355;28;20416;-83
2021/12/14 05:04:27;;;;;;;13.53;8.00;;;9.50;99.90;;;;;;5012103;28;20420;-84
2021/12/14 05:07:03;;;;;;;15.00;9.60;;;9.50;99.90;;;;;;5012349;28;20424;-84
2021/12/14 05:09:35;;;;;;;19.00;8.80;;;9.50;99.90;;;;;;5012058;28;20783;-84
2021/12/14 05:12:15;;;;;;;16.17;8.43;;;9.50;99.90;;;;;;5012323;28;20518;-84
2021/12/14 05:14:44;;;;;;;14.27;8.10;;;9.50;99.90;;;;;;5011814;28;20518;-83
2021/12/14 05:17:18;;;;;;;15.23;8.93;;;9.50;99.90;;;;;;5013464;28;20456;-84
2021/12/14 05:19:45;;;;;;;22.00;9.93;;;9.50;99.90;;;;;;5011622;28;20467;-84
2021/12/14 05:22:24;;;;;;;15.37;9.00;;;9.50;99.90;;;;;;5011689;28;20424;-83
2021/12/14 05:24:56;;;;;;;16.00;9.17;;;9.40;99.90;;;;;;5011617;28;20439;-84
2021/12/14 05:27:29;;;;;;;14.63;7.93;;;9.40;99.90;;;;;;5011722;28;20412;-84
2021/12/14 05:30:08;;;;;;;14.77;9.13;;;9.30;99.90;;;;;;5011460;28;20923;-83
2021/12/14 05:32:34;;;;;;;16.93;9.23;;;9.30;99.90;;;;;;5011571;28;20959;-84
2021/12/14 05:35:00;;;;;;;14.77;8.57;;;9.40;99.90;;;;;;5012683;28;20532;-84
2021/12/14 05:37:30;;;;;;;14.70;9.07;;;9.30;99.90;;;;;;5011671;28;20893;-84
2021/12/14 05:40:01;;;;;;;15.97;8.20;;;9.20;99.90;;;;;;5011191;28;20424;-84
2021/12/14 05:45:17;;;;;;;19.73;9.47;;;9.10;99.90;;;;;;5012723;28;20443;-84
2021/12/14 05:47:55;;;;;;;14.80;8.00;;;9.10;99.90;;;;;;5012765;28;20431;-84
2021/12/14 05:50:25;;;;;;;20.47;9.43;;;9.10;99.90;;;;;;5011304;28;20426;-84
2021/12/14 05:52:51;;;;;;;17.30;9.27;;;9.10;99.90;;;;;;5012522;28;20493;-83
2021/12/14 05:55:26;;;;;;;11.60;7.67;;;9.10;99.90;;;;;;5010587;28;20475;-84
2021/12/14 05:57:57;;;;;;;12.80;8.23;;;9.20;99.90;;;;;;5011230;28;20403;-83
2021/12/14 06:00:23;;;;;;;17.27;9.27;;;9.10;99.90;;;;;;5011152;28;20424;-84
2021/12/14 06:02:48;;;;;;;15.77;8.10;;;9.10;99.90;;;;;;5011187;28;20449;-84
2021/12/14 06:05:19;;;;;;;16.33;8.23;;;9.10;99.90;;;;;;5010982;28;20443;-83
2021/12/14 06:07:46;;;;;;;16.47;8.83;;;9.10;99.90;;;;;;5012769;28;20189;-83
2021/12/14 06:10:13;;;;;;;18.93;8.93;;;9.10;99.90;;;;;;5012186;28;20470;-83
2021/12/14 06:12:39;;;;;;;17.30;8.80;;;9.00;99.90;;;;;;5012333;28;20789;-84
2021/12/14 06:15:11;;;;;;;14.90;8.37;;;8.90;99.90;;;;;;5012170;28;20991;-84
2021/12/14 06:17:39;;;;;;;13.87;8.70;;;9.00;99.90;;;;;;5010917;28;20510;-84
2021/12/14 06:20:10;;;;;;;16.80;8.17;;;9.00;99.90;;;;;;5011119;28;20420;-84
2021/12/14 06:22:38;;;;;;;21.20;9.30;;;9.00;99.90;;;;;;5012022;28;20473;-83
2021/12/14 06:25:07;;;;;;;16.00;8.93;;;8.90;99.90;;;;;;5014436;28;20473;-84
2021/12/14 06:27:34;;;;;;;15.43;8.93;;;9.00;99.90;;;;;;5014118;28;20455;-84
2021/12/14 06:30:01;;;;;;;15.90;9.03;;;9.10;99.90;;;;;;5015627;28;20427;-83
2021/12/14 06:32:39;;;;;;;15.90;7.77;;;9.10;99.90;;;;;;5016037;28;20415;-84
2021/12/14 06:35:09;;;;;;;23.23;8.10;;;9.00;99.90;;;;;;5015673;28;20490;-83
2021/12/14 06:40:39;;;;;;;15.53;8.40;;;9.10;99.90;;;;;;5015416;28;20408;-84
2021/12/14 06:43:13;;;;;;;17.70;7.33;;;9.20;99.90;;;;;;5014077;28;20481;-84
2021/12/14 06:45:43;;;;;;;13.73;7.60;;;9.10;99.90;;;;;;5015036;28;20193;-83
2021/12/14 06:48:20;;;;;;;15.60;8.10;;;9.10;99.90;;;;;;5013947;28;20804;-84
2021/12/14 06:50:51;;;;;;;14.07;7.50;;;9.20;99.90;;;;;;5013938;28;20455;-84
2021/12/14 06:53:19;;;;;;;12.97;7.20;;;9.20;99.90;;;;;;5013783;28;20424;-84
2021/12/14 06:55:45;;;;;;;13.63;8.07;;;9.20;99.90;;;;;;5013765;28;20542;-84
2021/12/14 06:58:14;;;;;;;11.43;6.00;;;9.30;99.90;;;;;;5013236;28;20461;-83
2021/12/14 07:00:50;;;;;;;10.33;5.47;;;9.30;99.90;;;;;;5013834;28;20416;-83
2021/12/14 07:03:16;;;;;;;8.57;4.93;;;9.30;99.90;;;;;;5014299;28;20466;-84
2021/12/14 07:05:46;;;;;;;9.57;5.57;;;9.20;99.90;;;;;;5013803;28;20443;-83
2021/12/14 07:08:24;;;;;;;10.70;5.53;;;9.20;99.90;;;;;;5013607;28;20173;-84
2021/12/14 07:10:51;;;;;;;9.00;4.77;;;9.20;99.90;;;;;;5014907;28;20392;-84
2021/12/14 07:13:25;;;;;;;10.83;6.00;;;9.20;99.90;;;;;;5013482;28;20526;-83
2021/12/14 07:15:51;;;;;;;10.17;5.20;;;9.20;99.90;;;;;;5014551;28;20470;-83
2021/12/14 07:18:22;;;;;;;8.23;5.43;;;9.20;99.90;;;;;;5014865;28;20442;-84
2021/12/14 07:20:50;;;;;;;9.20;4.97;;;9.20;99.90;;;;;;5018646;28;20396;-85
2021/12/14 07:23:32;;;;;;;8.70;5.60;;;9.10;99.90;;;;;;5022996;28;20439;-84
2021/12/14 07:26:05;;;;;;;8.90;4.97;;;9.10;99.90;;;;;;5021801;28;20435;-84
2021/12/14 07:28:36;;;;;;;10.23;5.27;;;9.00;99.90;;;;;;5020541;28;20527;-84
2021/12/14 07:31:10;;;;;;;8.30;4.73;;;8.90;99.90;;;;;;5020423;28;20416;-85
2021/12/14 07:33:36;;;;;;;7.40;4.90;;;9.00;99.90;;;;;;5019870;28;20503;-85
2021/12/14 07:36:10;;;;;;;10.70;6.17;;;9.00;99.90;;;;;;5021599;28;20488;-84
2021/12/14 07:38:40;;;;;;;10.13;6.10;;;9.00;99.90;;;;;;5021780;28;20176;-85
2021/12/14 07:41:26;;;;;;;11.63;6.30;;;9.10;99.90;;;;;;5021069;28;20408;-84
2021/12/14 07:43:57;;;;;;;11.10;8.10;;;9.10;99.90;;;;;;5019563;28;20423;-85
2021/12/14 07:46:28;;;;;;;13.97;6.70;;;9.20;99.90;;;;;;5019528;28;20542;-86
2021/12/14 07:49:20;;;;;;;9.77;6.00;;;9.20;99.90;;;;;;5018875;28;20416;-84
2021/12/14 07:51:49;;;;;;;8.70;5.10;;;9.20;99.90;;;;;;5017595;28;20427;-84
2021/12/14 07:54:36;;;;;;;11.47;6.70;;;9.20;99.90;;;;;;5027706;28;20416;-85
2021/12/14 07:57:10;;;;;;;12.80;6.07;;;9.20;99.90;;;;;;5020620;28;20538;-84
2021/12/14 07:59:40;;;;;;;10.37;6.60;;;9.20;99.90;;;;;;5050960;22;20499;-78
2021/12/14 08:02:30;;;;;;;13.83;7.33;;;9.30;99.90;;;;;;5037940;28;20437;-78
2021/12/14 08:05:14;;;;;;;8.93;5.73;;;9.30;99.90;;;;;;5031027;28;20499;-78
2021/12/14 08:07:55;;;;;;;8.93;5.47;;;9.30;99.90;;;;;;5012455;28;20435;-77
2021/12/14 08:10:32;;;;;;;10.40;6.03;;;9.20;99.90;;;;;;5013220;28;20474;-78
2021/12/14 08:13:08;;;;;;;10.87;5.97;;;9.30;99.90;;;;;;5013281;28;20435;-78
2021/12/14 08:15:53;;;;;;;11.60;6.37;;;9.20;99.90;;;;;;5013392;28;20464;-78
2021/12/14 08:18:27;;;;;;;10.50;7.20;;;9.30;99.90;;;;;;5013754;28;20455;-77
2021/12/14 08:20:54;;;;;;;10.70;6.00;;;9.30;99.90;;;;;;5013348;28;20467;-78
2021/12/14 08:23:25;;;;;;;12.03;6.33;;;9.20;99.90;;;;;;5013221;28;20512;-78
2021/12/14 08:26:01;;;;;;;12.20;6.27;;;9.10;99.90;;;;;;5014461;28;20439;-77
2021/12/14 08:28:27;;;;;;;10.40;5.53;;;9.30;99.90;;;;;;5013530;28;20415;-77
2021/12/14 08:31:03;;;;;;;9.53;5.87;;;9.40;99.90;;;;;;5012991;28;20753;-78
2021/12/14 08:33:30;;;;;;;8.53;5.10;;;9.40;99.90;;;;;;5013587;28;20527;-80
2021/12/14 08:36:01;;;;;;;9.40;5.43;;;9.40;99.90;;;;;;5014204;28;20463;-78
2021/12/14 08:38:30;;;;;;;10.63;5.90;;;9.40;99.90;;;;;;5014225;28;20439;-78
2021/12/14 08:41:07;;;;;;;9.57;5.23;;;9.50;99.90;;;;;;5014329;28;20424;-78
2021/12/14 08:43:35;;;;;;;10.70;6.23;;;9.50;99.90;;;;;;5014127;28;20535;-78
2021/12/14 08:46:07;;;;;;;10.30;6.80;;;9.50;99.90;;;;;;5013361;28;21001;-78
2021/12/14 08:48:42;;;;;;;10.60;5.40;;;9.50;99.90;;;;;;5030665;28;20465;-78
2021/12/14 08:51:17;;;;;;;9.60;5.33;;;9.50;99.90;;;;;;5028589;28;20442;-77
2021/12/14 08:54:06;;;;;;;9.90;5.80;;;9.60;99.90;;;;;;5030969;28;20940;-77
2021/12/14 08:56:37;;;;;;;7.83;5.00;;;9.60;99.90;;;;;;5019095;28;20819;-78
2021/12/14 08:59:04;;;;;;;8.97;5.80;;;9.70;99.90;;;;;;5031229;28;20430;-77
2021/12/14 09:01:32;;;;;;;11.80;6.07;;;9.70;99.90;;;;;;5031430;28;20829;-77
2021/12/14 09:04:31;;;;;;;9.13;4.90;;;9.80;99.90;;;;;;5031240;28;20997;-78
2021/12/14 09:07:02;;;;;;;7.40;5.13;;;9.80;99.90;;;;;;5031107;28;20430;-78
2021/12/14 09:09:28;;;;;;;9.43;5.30;;;9.80;99.90;;;;;;5029486;28;20427;-78
2021/12/14 09:12:31;;;;;;;8.73;4.50;;;9.80;99.90;;;;;;5029812;28;20566;-77
2021/12/14 09:15:04;;;;;;;8.93;4.37;;;9.80;99.90;;;;;;5013250;28;20191;-77
2021/12/14 09:17:30;;;;;;;8.43;4.37;;;9.80;99.90;;;;;;5030832;28;20430;-77
2021/12/14 09:20:01;;;;;;;11.07;5.67;;;9.80;99.90;;;;;;5029577;28;20420;-77
2021/12/14 09:22:31;;;;;;;9.03;5.93;;;9.80;99.90;;;;;;5030169;28;20200;-77
2021/12/14 09:24:57;;;;;;;11.30;5.67;;;9.80;99.90;;;;;;5031434;28;20435;-77
2021/12/14 09:27:29;;;;;;;8.40;5.00;;;9.90;99.90;;;;;;5041033;28;20527;-77
2021/12/14 09:29:56;;;;;;;10.17;6.20;;;9.90;99.90;;;;;;5031499;28;20415;-77
2021/12/14 09:32:27;;;;;;;8.73;5.50;;;9.80;99.90;;;;;;5029357;28;20486;-77
2021/12/14 09:34:56;;;;;;;8.53;5.50;;;9.90;99.90;;;;;;5029787;28;20418;-76
2021/12/14 09:37:24;;;;;;;9.47;6.13;;;10.00;99.90;;;;;;5029908;28;20429;-77
2021/12/14 09:39:53;;;;;;;9.27;5.00;;;9.90;99.90;;;;;;5029750;28;20416;-77
2021/12/14 09:42:39;;;;;;;6.80;4.40;;;10.00;99.90;;;;;;5029833;28;20485;-77
2021/12/14 09:45:12;;;;;;;8.00;4.90;;;10.00;99.90;;;;;;5029410;28;20476;-77
2021/12/14 09:47:38;;;;;;;7.30;5.00;;;10.10;99.90;;;;;;5030164;28;20415;-77
2021/12/14 09:50:17;;;;;;;11.53;5.10;;;10.10;99.90;;;;;;5029664;28;20803;-77
2021/12/14 09:52:44;;;;;;;9.20;5.33;;;10.10;99.90;;;;;;5029912;28;20438;-77
2021/12/14 09:55:18;;;;;;;7.30;5.70;;;10.10;99.90;;;;;;5029740;28;20518;-77
2021/12/14 09:57:47;;;;;;;9.87;6.10;;;10.20;99.90;;;;;;5031324;28;20521;-77
2021/12/14 10:00:37;;;;;;;9.23;5.10;;;10.20;99.90;;;;;;5033426;28;20442;-77
2021/12/14 10:03:06;;;;;;;7.67;4.40;;;10.30;99.90;;;;;;5033747;28;20454;-77
2021/12/14 10:05:46;;;;;;;9.30;6.13;;;10.30;99.90;;;;;;5033458;28;20903;-77
2021/12/14 10:08:19;;;;;;;10.63;5.97;;;10.20;99.90;;;;;;5033466;28;20434;-77
2021/12/14 10:11:05;;;;;;;9.93;5.67;;;10.30;99.90;;;;;;5033425;28;20454;-77
2021/12/14 10:13:34;;;;;;;9.50;5.07;;;10.40;99.90;;;;;;5033583;28;20553;-77
2021/12/14 10:16:02;;;;;;;11.10;5.53;;;10.40;99.90;;;;;;5033191;28;20462;-77
2021/12/14 10:18:38;;;;;;;10.60;5.63;;;10.40;99.90;;;;;;5033301;28;20837;-77
2021/12/14 10:21:20;;;;;;;8.80;5.07;;;10.40;99.90;;;;;;5032769;28;20927;-77
2021/12/14 10:23:47;;;;;;;7.63;4.60;;;10.40;99.90;;;;;;5033405;28;20434;-77
2021/12/14 10:26:14;;;;;;;10.20;5.80;;;10.30;99.90;;;;;;5033022;28;20430;-77
2021/12/14 10:28:45;;;;;;;11.97;6.23;;;10.30;99.90;;;;;;5032989;28;20431;-77
2021/12/14 10:31:19;;;;;;;10.20;6.03;;;10.20;99.90;;;;;;5032834;28;20513;-77
2021/12/14 10:33:46;;;;;;;11.00;6.00;;;10.00;99.90;;;;;;5032652;28;20427;-77
2021/12/14 10:36:27;;;;;;;11.40;5.53;;;9.90;99.90;;;;;;5033476;28;20477;-77
2021/12/14 10:39:08;;;;;;;9.83;4.87;;;9.90;99.90;;;;;;5032662;28;20443;-77
2021/12/14 10:44:23;;;;;;;8.63;4.90;;;9.90;99.90;;;;;;5042189;28;20560;-77
2021/12/14 10:46:52;;;;;;;8.63;5.37;;;10.00;99.90;;;;;;5041906;28;20569;-77
2021/12/14 10:49:21;;;;;;;10.33;5.40;;;10.00;99.90;;;;;;5035999;28;20912;-77
2021/12/14 10:51:51;;;;;;;9.07;4.87;;;10.10;99.90;;;;;;5038653;28;20458;-77
2021/12/14 10:54:18;;;;;;;11.10;5.40;;;10.20;99.90;;;;;;5052775;28;20422;-77
2021/12/14 10:57:13;;;;;;;8.63;4.50;;;10.20;99.90;;;;;;5053396;28;20470;-77
2021/12/14 10:59:43;;;;;;;7.90;5.43;;;10.30;99.90;;;;;;5050487;28;20521;-77
2021/12/14 11:02:10;;;;;;;12.83;5.87;;;10.30;99.90;;;;;;5052384;28;20434;-77
2021/12/14 11:04:55;;;;;;;9.93;6.03;;;10.30;99.90;;;;;;5052496;28;20445;-77
2021/12/14 11:07:35;;;;;;;12.23;5.30;;;10.30;99.90;;;;;;5052514;28;20469;-77
2021/12/14 11:10:27;;;;;;;10.30;5.60;;;10.40;99.90;;;;;;5049970;28;20480;-77
2021/12/14 11:13:04;;;;;;;11.60;6.20;;;10.50;99.90;;;;;;5041931;28;20457;-77
2021/12/14 11:15:36;;;;;;;9.63;5.47;;;10.40;99.90;;;;;;5030141;28;20532;-77
2021/12/14 11:18:11;;;;;;;9.97;6.40;;;10.50;99.90;;;;;;5043802;28;20450;-77
2021/12/14 11:20:36;;;;;;;11.90;5.87;;;10.50;99.90;;;;;;5053372;28;20483;-77
2021/12/14 11:23:05;;;;;;;13.37;7.83;;;10.50;99.90;;;;;;5052909;28;20529;-77
2021/12/14 11:25:57;;;;;;;9.83;6.80;;;10.40;99.90;;;;;;5052892;28;20187;-76
2021/12/14 11:28:34;;;;;;;11.27;6.70;;;10.40;99.90;;;;;;5047994;28;20422;-80
2021/12/14 11:31:08;;;;;;;8.70;7.10;;;10.50;99.90;;;;;;5053746;28;20920;-79
2021/12/14 11:33:44;;;;;;;10.90;7.47;;;10.50;99.90;;;;;;5053815;28;20446;-79
2021/12/14 11:36:13;;;;;;;12.60;8.00;;;10.50;99.90;;;;;;5054035;28;20474;-80
2021/12/14 11:38:41;;;;;;;10.60;7.17;;;10.60;99.90;;;;;;5054117;28;20433;-79
2021/12/14 11:41:22;;;;;;;11.20;7.73;;;10.60;99.90;;;;;;5053676;28;20437;-77
2021/12/14 11:44:05;;;;;;;14.07;8.50;;;10.70;99.90;;;;;;5054389;28;20421;-79
2021/12/14 11:46:33;;;;;;;13.77;7.47;;;10.70;99.90;;;;;;5057039;28;20437;-79
2021/12/14 11:49:04;;;;;;;13.43;7.73;;;10.80;99.90;;;;;;5057953;28;20519;-79
2021/12/14 11:51:31;;;;;;;12.50;7.70;;;10.80;99.90;;;;;;5056729;28;20414;-78
2021/12/14 11:54:00;;;;;;;14.10;7.70;;;10.80;99.90;;;;;;5058578;28;20418;-80
2021/12/14 11:56:30;;;;;;;13.17;6.97;;;10.80;99.90;;;;;;5055197;28;20527;-79
2021/12/14 11:59:01;;;;;;;13.73;9.40;;;10.90;99.90;;;;;;5052659;28;20430;-76
2021/12/14 12:01:35;;;;;;;12.23;6.93;;;10.90;99.90;;;;;;5051920;28;20538;-78
2021/12/14 12:04:17;;;;;;;11.33;6.70;;;11.00;99.90;;;;;;5053115;28;20876;-77
2021/12/14 12:09:47;;;;;;;32.03;9.13;;;11.10;99.90;;;;;;5054784;28;20418;-78
2021/12/14 12:12:24;;;;;;;20.87;8.23;;;11.10;99.90;;;;;;5053618;28;20548;-77
2021/12/14 12:15:10;;;;;;;20.83;8.67;;;11.00;99.90;;;;;;5053452;28;20433;-77
2021/12/14 12:17:56;;;;;;;9.83;6.40;;;11.00;99.90;;;;;;5053182;28;20431;-78
2021/12/14 12:20:24;;;;;;;12.82;8.35;;;11.10;99.90;;;;;;5052809;28;20404;-77
2021/12/14 12:22:55;;;;;;;14.20;9.00;;;11.00;99.90;;;;;;5052873;28;20974;-78
2021/12/14 12:25:29;;;;;;;16.73;7.90;;;11.10;99.90;;;;;;5039655;28;20432;-78
2021/12/14 12:27:59;;;;;;;14.90;8.63;;;11.30;99.90;;;;;;5035029;28;20887;-78
2021/12/14 12:30:46;;;;;;;16.33;8.77;;;11.30;99.90;;;;;;5031061;28;20448;-78
2021/12/14 12:33:15;;;;;;;11.90;7.70;;;11.40;99.90;;;;;;5016351;28;20438;-78
2021/12/14 12:35:55;;;;;;;10.73;7.60;;;11.50;99.90;;;;;;5027797;28;20830;-78
2021/12/14 12:38:24;;;;;;;14.37;8.57;;;11.50;99.90;;;;;;5015408;28;20423;-77
2021/12/14 12:41:18;;;;;;;12.10;8.00;;;11.40;99.90;;;;;;5013964;28;20467;-78
2021/12/14 12:43:52;;;;;;;18.43;9.03;;;11.40;99.90;;;;;;5014049;28;20424;-78
2021/12/14 12:46:56;;;;;;;13.83;7.60;;;11.30;99.90;;;;;;5013056;28;20419;-78
2021/12/14 12:49:26;;;;;;;13.10;7.70;;;11.30;99.90;;;;;;5029332;28;20438;-77
2021/12/14 12:52:10;;;;;;;12.13;7.73;;;11.20;99.90;;;;;;5013874;28;20442;-78
2021/12/14 12:55:01;;;;;;;12.10;7.63;;;11.20;99.90;;;;;;5030764;28;20832;-78
2021/12/14 12:57:54;;;;;;;12.70;7.23;;;11.10;99.90;;;;;;5031789;28;20426;-77
2021/12/14 13:00:37;;;;;;;14.03;7.87;;;11.20;99.90;;;;;;5031643;28;20451;-78
2021/12/14 13:03:07;;;;;;;14.30;8.87;;;11.20;99.90;;;;;;5032127;28;20443;-78
2021/12/14 13:05:45;;;;;;;13.63;8.90;;;11.10;99.90;;;;;;5032971;28;20422;-78
2021/12/14 13:08:26;;;;;;;15.10;9.17;;;11.10;99.90;;;;;;5032603;28;20423;-78
2021/12/14 13:11:07;;;;;;;17.80;9.03;;;11.20;99.90;;;;;;5033011;28;20454;-79
2021/12/14 13:13:41;;;;;;;13.30;8.50;;;11.10;99.90;;;;;;5032110;28;20480;-77
2021/12/14 13:16:29;;;;;;;12.20;8.23;;;11.20;99.90;;;;;;5030630;28;20866;-77
2021/12/14 13:18:59;;;;;;;14.57;8.37;;;11.30;99.90;;;;;;5030674;28;20407;-78
2021/12/14 13:21:48;;;;;;;16.63;9.30;;;11.40;99.90;;;;;;5030493;28;20454;-78
2021/12/14 13:24:29;;;;;;;18.80;10.20;;;11.50;99.90;;;;;;5032795;28;20419;-78
2021/12/14 13:27:06;;;;;;;17.03;10.13;;;11.30;99.90;;;;;;5033233;28;20430;-78
2021/12/14 13:29:47;;;;;;;16.00;11.03;;;11.30;99.90;;;;;;5032101;28;20426;-78
2021/12/14 13:32:22;;;;;;;15.80;9.47;;;11.30;99.90;;;;;;5032702;28;20862;-77
2021/12/14 13:35:15;;;;;;;14.63;8.67;;;11.30;99.90;;;;;;5037095;28;20418;-78
2021/12/14 13:37:51;;;;;;;14.97;9.17;;;11.50;99.90;;;;;;5037448;28;20493;-78
2021/12/14 13:40:45;;;;;;;17.67;10.30;;;11.50;99.90;;;;;;5036464;28;20415;-78
2021/12/14 13:43:11;;;;;;;13.83;8.20;;;11.50;99.90;;;;;;5033528;28;20482;-78
2021/12/14 13:45:42;;;;;;;15.77;9.60;;;11.50;99.90;;;;;;5037237;28;20418;-78
2021/12/14 13:48:11;;;;;;;16.60;9.90;;;11.60;99.90;;;;;;5036984;28;20595;-78
2021/12/14 13:50:42;;;;;;;13.90;8.47;;;11.50;99.90;;;;;;5036037;28;20411;-78